Time;durP1;ratioP1;P1;durP2;ratioP2;P2;SDS_P1;SDS_P2;PMS_P1;PMS_P2;Temp;Humidity;BMP_temperature;BMP_pressure;BME280_temperature;BME280_humidity;BME280_pressure;Samples;Min_cycle;Max_cycle;Signal;HPM_P1;HPM_P2
2023/03/28 00:02:08;;;;;;;0.55;0.55;;;;;;;1.23;92.88;99187.13;6321198;28;20041;-72
2023/03/28 00:05:10;;;;;;;0.45;0.45;;;;;;;1.24;94.22;99199.94;6320056;28;20055;-72
2023/03/28 00:08:10;;;;;;;0.75;0.50;;;;;;;1.17;93.03;99189.06;6320001;28;20089;-71
2023/03/28 00:11:20;;;;;;;0.22;0.22;;;;;;;1.35;94.18;99202.94;6321380;28;20045;-71
2023/03/28 00:14:20;;;;;;;0.50;0.50;;;;;;;1.29;91.88;99205.72;6321081;28;20101;-71
2023/03/28 00:17:21;;;;;;;0.40;0.40;;;;;;;1.27;91.05;99202.38;6319929;28;20048;-71
2023/03/28 00:20:24;;;;;;;2.65;1.65;;;;;;;1.32;91.52;99213.34;6319737;28;20062;-71
2023/03/28 00:23:26;;;;;;;0.85;0.75;;;;;;;1.42;88.82;99218.97;6320063;28;20477;-72
2023/03/28 00:26:31;;;;;;;0.65;0.43;;;;;;;1.32;87.47;99226.19;6321060;28;20055;-71
2023/03/28 00:29:32;;;;;;;1.15;0.88;;;;;;;1.22;89.69;99218.88;6319711;28;20036;-71
2023/03/28 00:32:33;;;;;;;2.03;1.03;;;;;;;1.21;89.79;99230.88;6324042;28;20118;-79
2023/03/28 00:35:34;;;;;;;0.65;0.50;;;;;;;1.35;89.76;99230.38;6326333;28;20066;-79
2023/03/28 00:38:35;;;;;;;0.82;0.63;;;;;;;1.37;87.15;99233.72;6325114;28;20048;-78
2023/03/28 00:41:43;;;;;;;1.02;0.57;;;;;;;1.28;88.84;99246.94;6325091;28;20075;-78
2023/03/28 00:44:49;;;;;;;0.55;0.55;;;;;;;1.27;85.46;99250.38;6324864;28;20055;-78
2023/03/28 00:48:06;;;;;;;1.50;1.15;;;;;;;1.30;84.77;99256.25;6326161;28;20036;-78
2023/03/28 00:51:08;;;;;;;1.23;0.65;;;;;;;1.27;84.23;99258.09;6324730;28;20102;-78
2023/03/28 00:54:14;;;;;;;1.02;0.90;;;;;;;1.38;85.49;99266.25;6324667;28;20050;-78
2023/03/28 00:57:16;;;;;;;0.30;0.30;;;;;;;1.47;86.88;99260.78;6324795;28;20476;-78
2023/03/28 01:00:19;;;;;;;0.47;0.47;;;;;;;1.33;84.71;99263.00;6324493;28;20051;-78
2023/03/28 01:03:26;;;;;;;1.92;1.10;;;;;;;1.31;86.69;99273.34;6325604;28;20044;-78
2023/03/28 01:06:34;;;;;;;1.75;0.75;;;;;;;1.26;81.77;99271.84;6325823;28;20048;-78
2023/03/28 01:09:35;;;;;;;0.47;0.47;;;;;;;1.33;83.24;99281.00;6325708;28;20036;-78
2023/03/28 01:12:37;;;;;;;0.30;0.30;;;;;;;1.38;83.39;99287.66;6325571;28;20101;-78
2023/03/28 01:15:39;;;;;;;0.65;0.60;;;;;;;1.42;84.15;99293.50;6325530;28;20550;-78
2023/03/28 01:18:45;;;;;;;1.63;0.85;;;;;;;1.23;81.87;99287.38;6325541;28;20120;-78
2023/03/28 01:22:05;;;;;;;0.47;0.47;;;;;;;1.45;78.73;99290.84;6324217;28;20442;-78
2023/03/28 01:25:15;;;;;;;0.60;0.60;;;;;;;1.33;78.29;99299.81;6325734;28;20529;-78
2023/03/28 01:28:55;;;;;;;0.38;0.38;;;;;;;1.23;78.83;99295.06;6325620;28;20048;-78
2023/03/28 01:32:28;;;;;;;0.15;0.15;;;;;;;1.31;80.76;99311.06;6303997;28;20139;-78
2023/03/28 01:35:32;;;;;;;;;;;;;;;1.22;78.85;99311.41;6308461;28;20052;-78
2023/03/28 01:38:56;;;;;;;7.03;0.85;;;;;;;1.25;80.47;99321.56;6325538;28;19927;-78
2023/03/28 01:42:09;;;;;;;0.52;0.40;;;;;;;1.16;79.64;99326.13;6325617;28;20060;-78
2023/03/28 01:45:25;;;;;;;;;;;;;;;1.06;78.80;99324.75;6328585;28;20066;-78
2023/03/28 01:48:48;;;;;;;0.57;0.57;;;;;;;1.09;78.58;99329.81;6327645;28;19924;-78
2023/03/28 01:52:27;;;;;;;0.90;0.70;;;;;;;1.10;76.47;99335.78;6327025;28;20040;-77
2023/03/28 01:55:39;;;;;;;1.02;0.77;;;;;;;0.98;74.95;99339.59;6283778;28;20049;-77
2023/03/28 01:59:19;;;;;;;0.32;0.32;;;;;;;1.14;74.18;99347.63;6324747;28;20050;-76
2023/03/28 02:02:20;;;;;;;15.20;1.58;;;;;;;1.20;72.68;99347.41;6323093;28;20063;-76
2023/03/28 02:05:22;;;;;;;2.63;1.00;;;;;;;1.20;73.95;99355.97;6323157;28;20044;-76
2023/03/28 02:08:29;;;;;;;0.63;0.63;;;;;;;1.06;74.80;99359.88;6322974;28;20484;-76
2023/03/28 02:11:34;;;;;;;0.30;0.30;;;;;;;1.09;76.92;99368.34;6324000;28;20089;-76
2023/03/28 02:14:41;;;;;;;0.93;0.60;;;;;;;1.13;75.31;99366.50;6322724;28;20473;-76
2023/03/28 02:17:48;;;;;;;0.60;0.57;;;;;;;1.11;75.82;99373.41;6323742;28;20044;-76
2023/03/28 02:20:58;;;;;;;1.63;0.90;;;;;;;1.03;75.58;99373.69;6322634;28;20036;-76
2023/03/28 02:23:59;;;;;;;1.95;0.63;;;;;;;1.13;74.50;99381.91;6323512;28;20044;-75
2023/03/28 02:27:00;;;;;;;0.90;0.63;;;;;;;1.16;76.27;99381.81;6323565;28;20040;-75
2023/03/28 02:30:01;;;;;;;2.90;0.75;;;;;;;0.96;74.59;99398.72;6323203;28;20476;-75
2023/03/28 02:33:07;;;;;;;0.47;0.47;;;;;;;1.06;74.68;99401.84;6322037;28;20040;-75
2023/03/28 02:36:59;;;;;;;0.50;0.40;;;;;;;1.00;73.83;99400.28;6323390;28;20482;-75
2023/03/28 02:40:24;;;;;;;0.30;0.30;;;;;;;1.01;75.09;99408.88;6311102;28;20052;-75
2023/03/28 02:44:06;;;;;;;0.77;0.68;;;;;;;0.94;74.11;99410.75;6323558;28;20040;-75
2023/03/28 02:47:20;;;;;;;0.55;0.43;;;;;;;0.92;72.85;99420.25;6299601;28;20075;-75
2023/03/28 02:51:00;;;;;;;1.48;0.45;;;;;;;1.02;74.20;99425.94;6321721;28;20044;-75
2023/03/28 02:54:28;;;;;;;0.43;0.43;;;;;;;1.03;75.74;99430.22;6321711;28;20036;-75
2023/03/28 02:57:38;;;;;;;0.30;0.30;;;;;;;1.03;76.13;99429.34;6323041;28;20040;-75
2023/03/28 03:00:39;;;;;;;0.55;0.55;;;;;;;0.76;75.09;99440.47;6321843;28;20507;-75
2023/03/28 03:03:44;;;;;;;2.08;0.68;;;;;;;0.86;76.06;99445.28;6321664;28;20068;-75
2023/03/28 03:06:45;;;;;;;0.73;0.60;;;;;;;0.70;73.45;99448.34;6321034;28;20052;-70
2023/03/28 03:09:52;;;;;;;0.77;0.52;;;;;;;0.79;73.69;99455.75;6319954;28;20093;-70
2023/03/28 03:12:53;;;;;;;0.30;0.30;;;;;;;0.74;74.49;99452.50;6321265;28;20090;-71
2023/03/28 03:15:56;;;;;;;0.70;0.40;;;;;;;0.65;74.42;99463.03;6321827;28;20040;-72
2023/03/28 03:18:59;;;;;;;0.25;0.22;;;;;;;0.44;73.41;99464.50;6321894;28;20105;-71
2023/03/28 03:22:01;;;;;;;1.10;0.50;;;;;;;0.38;73.95;99460.38;6320515;28;20056;-71
2023/03/28 03:25:07;;;;;;;0.20;0.20;;;;;;;0.52;74.00;99464.28;6320707;28;20468;-70
2023/03/28 03:28:08;;;;;;;0.75;0.73;;;;;;;0.52;73.72;99464.28;6321579;28;20055;-70
2023/03/28 03:31:10;;;;;;;1.65;1.33;;;;;;;0.47;73.50;99461.00;6320450;28;20127;-70
2023/03/28 03:34:11;;;;;;;9.73;3.88;;;;;;;0.55;72.56;99470.16;6321509;28;20088;-70
2023/03/28 03:37:13;;;;;;;26.65;4.80;;;;;;;0.71;73.17;99480.00;6320238;28;20044;-70
2023/03/28 03:40:16;;;;;;;11.48;3.65;;;;;;;0.72;76.51;99490.22;6320371;28;20464;-70
2023/03/28 03:43:17;;;;;;;3.75;2.33;;;;;;;0.64;76.36;99487.03;6320374;28;20055;-70
2023/03/28 03:46:18;;;;;;;0.60;0.60;;;;;;;0.70;77.31;99492.00;6320314;28;20052;-70
2023/03/28 03:49:19;;;;;;;8.27;1.35;;;;;;;0.61;77.51;99505.09;6320287;28;20044;-70
2023/03/28 03:52:20;;;;;;;0.47;0.40;;;;;;;0.74;78.01;99513.28;6319954;28;20444;-70
2023/03/28 03:55:25;;;;;;;0.47;0.43;;;;;;;0.57;77.56;99513.78;6320186;28;20044;-70
2023/03/28 03:58:26;;;;;;;0.70;0.52;;;;;;;0.57;78.63;99518.91;6320127;28;20033;-70
2023/03/28 04:01:28;;;;;;;0.55;0.55;;;;;;;0.46;77.42;99523.50;6320060;28;20459;-70
2023/03/28 04:04:29;;;;;;;1.80;1.08;;;;;;;0.36;79.60;99521.19;6320215;28;20067;-71
2023/03/28 04:07:32;;;;;;;26.38;8.90;;;;;;;0.43;79.73;99531.28;6324905;28;20468;-70
2023/03/28 04:10:34;;;;;;;25.73;11.57;;;;;;;0.48;80.11;99539.72;6324657;28;20040;-70
2023/03/28 04:13:35;;;;;;;14.93;5.78;;;;;;;0.35;79.30;99542.63;6326036;28;20036;-70
2023/03/28 04:16:40;;;;;;;2.25;1.42;;;;;;;0.36;79.35;99549.41;6324601;28;20040;-70
2023/03/28 04:19:41;;;;;;;1.73;1.27;;;;;;;0.51;81.86;99548.16;6324637;28;20044;-70
2023/03/28 04:22:42;;;;;;;1.45;1.08;;;;;;;0.57;80.21;99555.69;6325731;28;20058;-70
2023/03/28 04:25:43;;;;;;;0.40;0.40;;;;;;;0.44;82.66;99556.91;6325771;28;20036;-71
2023/03/28 04:28:44;;;;;;;1.50;1.02;;;;;;;0.24;86.02;99556.63;6324301;28;20036;-70
2023/03/28 04:31:54;;;;;;;1.77;1.17;;;;;;;0.16;83.65;99562.78;6324483;28;20472;-71
2023/03/28 04:34:59;;;;;;;3.60;1.27;;;;;;;0.21;83.58;99570.38;6325543;28;20407;-74
2023/03/28 04:38:01;;;;;;;0.95;0.85;;;;;;;0.28;85.03;99576.19;6326020;28;20032;-71
2023/03/28 04:41:04;;;;;;;1.02;0.93;;;;;;;0.16;83.56;99582.47;6324340;28;20044;-74
2023/03/28 04:44:05;;;;;;;1.27;0.57;;;;;;;0.20;85.51;99581.50;6326435;28;20048;-74
2023/03/28 04:47:15;;;;;;;1.02;0.93;;;;;;;0.22;85.75;99587.44;6324694;28;20049;-74
2023/03/28 04:50:16;;;;;;;4.22;1.02;;;;;;;0.27;84.64;99590.75;6325993;28;20536;-74
2023/03/28 04:53:17;;;;;;;1.05;0.98;;;;;;;0.17;84.15;99594.44;6324428;28;20528;-74
2023/03/28 04:56:18;;;;;;;1.67;1.13;;;;;;;0.15;84.52;99604.72;6324543;28;20507;-74
2023/03/28 04:59:20;;;;;;;1.40;0.68;;;;;;;0.01;85.52;99608.53;6325379;28;20051;-74
2023/03/28 05:02:21;;;;;;;0.60;0.60;;;;;;;-0.06;85.56;99616.38;6324579;28;20404;-74
2023/03/28 05:05:22;;;;;;;1.50;0.75;;;;;;;0.00;86.89;99612.81;6323772;28;20070;-74
2023/03/28 05:08:26;;;;;;;0.63;0.63;;;;;;;0.11;85.72;99625.38;6324108;28;20048;-74
2023/03/28 05:11:28;;;;;;;4.22;1.13;;;;;;;0.15;84.42;99632.13;6324084;28;20048;-74
2023/03/28 05:14:28;;;;;;;2.03;0.95;;;;;;;0.29;82.56;99632.59;6324061;28;20428;-74
2023/03/28 05:17:29;;;;;;;1.23;0.98;;;;;;;0.18;80.35;99637.16;6323694;28;20047;-71
2023/03/28 05:20:32;;;;;;;1.27;1.05;;;;;;;0.18;78.85;99650.81;6324331;28;20472;-70
2023/03/28 05:23:33;;;;;;;2.15;1.27;;;;;;;0.26;80.49;99649.78;6324207;28;20457;-70
2023/03/28 05:26:35;;;;;;;0.73;0.70;;;;;;;0.32;79.52;99654.78;6323058;28;20055;-71
2023/03/28 05:29:35;;;;;;;1.38;1.27;;;;;;;0.30;78.61;99664.25;6323090;28;20495;-75
2023/03/28 05:32:37;;;;;;;2.95;1.40;;;;;;;0.40;79.27;99669.09;6323471;28;20044;-75
2023/03/28 05:35:38;;;;;;;0.70;0.70;;;;;;;0.43;77.43;99672.47;6322367;28;20511;-75
2023/03/28 05:38:39;;;;;;;4.28;1.02;;;;;;;0.51;76.99;99673.09;6323867;28;20558;-75
2023/03/28 05:41:41;;;;;;;2.25;1.00;;;;;;;0.70;77.44;99671.75;6323414;28;20088;-76
2023/03/28 05:44:42;;;;;;;3.17;1.10;;;;;;;0.79;77.55;99673.22;6322498;28;20048;-76
2023/03/28 05:47:43;;;;;;;1.63;1.10;;;;;;;0.96;76.77;99663.31;6322021;28;20043;-76
2023/03/28 05:50:47;;;;;;;1.98;1.42;;;;;;;0.89;74.71;99674.66;6323240;28;20083;-76
2023/03/28 05:53:48;;;;;;;0.98;0.75;;;;;;;0.90;73.23;99688.34;6322449;28;20044;-76
2023/03/28 05:56:49;;;;;;;2.50;0.70;;;;;;;0.88;71.17;99680.66;6322501;28;20171;-77
2023/03/28 05:59:50;;;;;;;1.13;0.98;;;;;;;0.94;69.38;99671.97;6322204;28;20441;-72
2023/03/28 06:02:51;;;;;;;1.13;0.80;;;;;;;1.05;68.07;99682.81;6321189;28;20044;-72
2023/03/28 06:05:52;;;;;;;0.73;0.60;;;;;;;1.17;67.65;99681.59;6321270;28;20036;-71
2023/03/28 06:08:53;;;;;;;4.57;1.15;;;;;;;1.38;66.93;99683.56;6322234;28;20042;-71
2023/03/28 06:11:54;;;;;;;1.85;1.00;;;;;;;1.53;65.84;99679.69;6355316;27;20051;-71
2023/03/28 06:14:55;;;;;;;1.65;1.55;;;;;;;1.56;66.66;99683.88;6321006;28;20119;-71
2023/03/28 06:17:56;;;;;;;0.60;0.60;;;;;;;1.54;66.29;99686.50;6321031;28;20040;-71
2023/03/28 06:21:00;;;;;;;1.35;0.60;;;;;;;1.63;65.24;99687.97;6322049;28;20044;-72
2023/03/28 06:24:04;;;;;;;0.75;0.47;;;;;;;1.72;68.01;99697.97;6321012;28;20051;-71
2023/03/28 06:27:04;;;;;;;1.23;0.75;;;;;;;1.73;67.16;99698.81;6322006;28;20044;-71
2023/03/28 06:30:06;;;;;;;1.15;0.75;;;;;;;1.81;67.70;99705.44;6321319;28;20036;-72
2023/03/28 06:33:07;;;;;;;3.50;0.77;;;;;;;1.91;68.93;99715.41;6320494;28;20044;-72
2023/03/28 06:36:09;;;;;;;6.68;1.52;;;;;;;1.94;68.41;99711.03;6321681;28;20051;-72
2023/03/28 06:39:10;;;;;;;0.60;0.60;;;;;;;2.06;67.27;99714.09;6321818;28;20077;-72
2023/03/28 06:42:11;;;;;;;1.27;0.93;;;;;;;2.18;65.57;99713.72;6320322;28;20281;-71
2023/03/28 06:45:12;;;;;;;1.73;1.17;;;;;;;2.23;65.74;99722.13;6320503;28;20538;-73
2023/03/28 06:48:15;;;;;;;1.90;1.00;;;;;;;2.28;63.47;99716.84;6321447;28;20532;-73
2023/03/28 06:51:20;;;;;;;0.73;0.57;;;;;;;2.49;64.24;99716.16;6319927;28;20044;-72
2023/03/28 06:54:23;;;;;;;0.63;0.63;;;;;;;2.54;64.54;99711.69;6320014;28;20063;-71
2023/03/28 06:57:24;;;;;;;2.20;1.48;;;;;;;2.75;65.80;99719.56;6321346;28;20040;-72
2023/03/28 07:00:25;;;;;;;0.45;0.45;;;;;;;2.86;66.18;99717.44;6319682;28;20048;-72
2023/03/28 07:03:28;;;;;;;1.58;0.95;;;;;;;2.81;62.93;99724.50;6292385;28;20575;-71
2023/03/28 07:06:29;;;;;;;1.08;0.32;;;;;;;2.84;62.04;99732.13;6292334;28;20350;-71
2023/03/28 07:09:35;;;;;;;1.02;0.50;;;;;;;2.94;62.16;99722.34;6296045;28;20089;-72
2023/03/28 07:12:39;;;;;;;2.30;1.27;;;;;;;3.31;63.99;99723.63;6296572;28;20053;-71
2023/03/28 07:15:40;;;;;;;1.27;0.77;;;;;;;3.23;62.31;99732.47;6295743;28;20047;-71
2023/03/28 07:18:41;;;;;;;1.08;0.75;;;;;;;3.18;60.28;99736.94;6294809;28;20037;-71
2023/03/28 07:21:42;;;;;;;0.80;0.80;;;;;;;3.30;59.24;99746.00;6294731;28;20074;-71
2023/03/28 07:24:43;;;;;;;0.82;0.82;;;;;;;3.59;62.02;99747.50;6294701;28;20063;-71
2023/03/28 07:27:44;;;;;;;0.90;0.75;;;;;;;3.60;58.61;99744.03;6295857;28;20533;-72
2023/03/28 07:30:45;;;;;;;0.82;0.68;;;;;;;3.78;59.25;99736.50;6294475;28;20044;-71
2023/03/28 07:33:49;;;;;;;0.50;0.38;;;;;;;4.02;59.52;99748.44;6295677;28;20374;-71
2023/03/28 07:36:50;;;;;;;0.57;0.40;;;;;;;3.88;57.37;99748.16;6294724;28;20476;-71
2023/03/28 07:39:53;;;;;;;1.10;0.60;;;;;;;3.98;57.44;99762.38;6297218;28;20044;-74
2023/03/28 07:42:54;;;;;;;1.10;0.50;;;;;;;4.29;58.29;99758.59;6301432;28;20481;-74
2023/03/28 07:46:06;;;;;;;0.82;0.57;;;;;;;4.24;56.42;99755.34;6300875;28;20048;-74
2023/03/28 07:49:07;;;;;;;0.70;0.70;;;;;;;4.50;57.17;99761.22;6300860;28;20037;-75
2023/03/28 07:52:08;;;;;;;1.27;1.17;;;;;;;4.40;56.52;99771.91;6301864;28;20558;-75
2023/03/28 07:55:10;;;;;;;0.75;0.47;;;;;;;4.69;55.12;99754.38;6301819;28;20041;-75
2023/03/28 07:58:11;;;;;;;1.02;0.88;;;;;;;4.85;55.30;99765.75;6301933;28;20098;-74
2023/03/28 08:01:13;;;;;;;0.40;0.38;;;;;;;4.70;54.86;99763.00;6300250;28;20040;-74
2023/03/28 08:04:15;;;;;;;0.80;0.70;;;;;;;4.84;52.02;99760.69;6301693;28;20541;-75
2023/03/28 08:07:17;;;;;;;0.73;0.55;;;;;;;4.89;52.64;99763.06;6300106;28;20155;-75
2023/03/28 08:10:18;;;;;;;1.40;0.70;;;;;;;5.27;51.91;99766.56;6300020;28;20089;-75
2023/03/28 08:13:19;;;;;;;1.90;0.77;;;;;;;5.18;53.67;99764.41;6300671;28;20504;-75
2023/03/28 08:16:20;;;;;;;0.40;0.40;;;;;;;5.40;53.98;99770.31;6300643;28;20085;-71
2023/03/28 08:19:21;;;;;;;0.68;0.60;;;;;;;5.45;54.10;99775.28;6298735;28;20045;-71
2023/03/28 08:22:23;;;;;;;0.32;0.32;;;;;;;5.34;49.54;99773.19;6299807;28;20454;-71
2023/03/28 08:25:24;;;;;;;1.00;0.60;;;;;;;5.76;50.50;99779.91;6299727;28;20064;-71
2023/03/28 08:28:25;;;;;;;0.68;0.68;;;;;;;6.05;52.22;99768.28;6299366;28;20041;-71
2023/03/28 08:31:28;;;;;;;1.00;0.85;;;;;;;6.01;53.78;99776.22;6299556;28;20538;-72
2023/03/28 08:34:29;;;;;;;0.77;0.50;;;;;;;5.96;53.28;99773.03;6298144;28;20133;-71
2023/03/28 08:37:30;;;;;;;1.08;0.60;;;;;;;5.88;52.67;99785.47;6298294;28;20475;-72
2023/03/28 08:40:38;;;;;;;1.07;0.60;;;;;;;5.73;48.78;99768.88;6299453;28;20044;-72
2023/03/28 08:44:13;;;;;;;0.70;0.70;;;;;;;5.95;51.02;99781.69;6298974;28;20059;-72
2023/03/28 08:47:24;;;;;;;1.95;0.65;;;;;;;5.91;47.26;99774.94;6299286;28;20037;-71
2023/03/28 08:51:04;;;;;;;0.95;0.65;;;;;;;6.00;46.27;99770.22;6298809;28;20179;-71
2023/03/28 08:54:15;;;;;;;0.52;0.52;;;;;;;6.38;50.14;99777.09;6262809;28;20594;-72
2023/03/28 08:57:20;;;;;;;1.10;0.82;;;;;;;6.13;46.89;99775.66;6304376;28;20189;-71
2023/03/28 09:00:30;;;;;;;0.93;0.60;;;;;;;6.41;46.01;99777.78;6322628;28;20047;-71
2023/03/28 09:03:32;;;;;;;1.65;1.08;;;;;;;6.74;49.42;99779.66;6322539;28;20040;-71
2023/03/28 09:06:39;;;;;;;1.65;0.55;;;;;;;6.85;46.34;99785.13;6321271;28;20036;-71
2023/03/28 09:10:29;;;;;;;1.23;0.40;;;;;;;6.62;47.63;99783.69;6321235;28;20044;-72
2023/03/28 09:13:52;;;;;;;1.70;0.75;;;;;;;6.69;44.07;99780.78;6299071;28;20454;-71
2023/03/28 09:16:53;;;;;;;0.52;0.40;;;;;;;5.77;44.72;99793.72;6321159;28;20378;-71
2023/03/28 09:20:11;;;;;;;0.52;0.52;;;;;;;5.81;46.11;99792.69;6320936;28;20044;-71
2023/03/28 09:23:50;;;;;;;0.90;0.55;;;;;;;6.33;45.42;99797.22;6321012;28;20044;-72
2023/03/28 09:27:15;;;;;;;0.52;0.52;;;;;;;6.75;43.19;99790.84;6321810;28;20844;-71
2023/03/28 09:30:24;;;;;;;0.32;0.32;;;;;;;6.84;42.94;99790.41;6321982;28;20043;-71
2023/03/28 09:33:32;;;;;;;0.45;0.45;;;;;;;7.38;44.14;99801.50;6321715;28;20036;-71
2023/03/28 09:36:42;;;;;;;1.42;0.45;;;;;;;7.52;44.74;99802.53;6322685;28;20044;-76
2023/03/28 09:39:48;;;;;;;0.55;0.45;;;;;;;6.55;43.36;99804.81;6322221;28;20079;-76
2023/03/28 09:43:04;;;;;;;0.32;0.32;;;;;;;6.85;43.73;99805.88;6322224;28;20040;-76
2023/03/28 09:46:38;;;;;;;0.85;0.50;;;;;;;7.30;44.72;99800.22;6322219;28;20044;-76
2023/03/28 09:49:39;;;;;;;1.20;0.75;;;;;;;8.21;45.53;99797.03;6323494;28;20052;-76
2023/03/28 09:52:40;;;;;;;0.82;0.70;;;;;;;8.42;42.95;99799.41;6281114;28;1187137;-76
2023/03/28 09:55:41;;;;;;;1.30;0.57;;;;;;;8.25;47.12;99792.53;6324100;28;20465;-76
2023/03/28 09:58:49;;;;;;;1.25;0.88;;;;;;;8.01;43.09;99797.31;6323344;28;20036;-76
2023/03/28 10:01:51;;;;;;;0.40;0.40;;;;;;;7.57;44.33;99798.75;6324235;28;20116;-76
2023/03/28 10:04:52;;;;;;;;;;;;;;;8.21;41.15;99791.84;6322644;28;20072;-77
2023/03/28 10:07:57;;;;;;;1.17;1.05;;;;;;;8.25;43.80;99787.31;6324147;28;19927;-76
2023/03/28 10:11:11;;;;;;;1.15;0.65;;;;;;;8.38;44.62;99784.88;6322671;28;20044;-76
2023/03/28 10:14:27;;;;;;;1.15;0.73;;;;;;;8.14;41.79;99794.91;6322344;28;20123;-76
2023/03/28 10:17:33;;;;;;;1.27;1.10;;;;;;;8.25;44.28;99789.94;6323242;28;20108;-76
2023/03/28 10:20:36;;;;;;;1.88;1.00;;;;;;;8.68;43.43;99788.38;6321985;28;20036;-75
2023/03/28 10:23:40;;;;;;;0.80;0.73;;;;;;;8.39;43.38;99782.19;6321242;28;20071;-76
2023/03/28 10:26:41;;;;;;;0.60;0.60;;;;;;;8.16;43.04;99787.84;6322696;28;20039;-76
2023/03/28 10:29:43;;;;;;;0.80;0.80;;;;;;;8.57;40.21;99790.75;6321208;28;20062;-76
2023/03/28 10:32:43;;;;;;;0.60;0.30;;;;;;;8.40;41.64;99799.47;6321161;28;20044;-76
2023/03/28 10:35:57;;;;;;;1.52;0.70;;;;;;;8.09;42.07;99797.72;6320845;28;20064;-75
2023/03/28 10:39:22;;;;;;;0.65;0.63;;;;;;;9.00;42.98;99800.47;6321067;28;20048;-76
2023/03/28 10:42:23;;;;;;;1.30;0.88;;;;;;;8.91;41.91;99788.81;6321223;28;20040;-76
2023/03/28 10:45:40;;;;;;;1.88;0.88;;;;;;;8.36;42.36;99794.53;6321302;28;20048;-76
2023/03/28 10:48:51;;;;;;;0.47;0.40;;;;;;;8.86;41.18;99791.69;6321166;28;20074;-77
2023/03/28 10:51:53;;;;;;;1.17;0.93;;;;;;;8.94;40.61;99791.25;6320899;28;20059;-76
2023/03/28 10:55:10;;;;;;;0.55;0.47;;;;;;;8.07;39.71;99791.78;6321977;28;20127;-76
2023/03/28 10:58:32;;;;;;;0.85;0.68;;;;;;;8.50;39.78;99791.19;6321410;28;20047;-76
2023/03/28 11:01:50;;;;;;;0.40;0.40;;;;;;;9.39;42.62;99783.38;6321302;28;20048;-76
2023/03/28 11:05:00;;;;;;;0.70;0.52;;;;;;;9.53;41.79;99785.97;6322552;28;20506;-76
2023/03/28 11:08:20;;;;;;;0.88;0.60;;;;;;;9.78;38.11;99787.09;6321072;28;20094;-77
2023/03/28 11:11:23;;;;;;;0.50;0.50;;;;;;;9.34;41.24;99785.44;6321112;28;20048;-76
2023/03/28 11:14:43;;;;;;;0.52;0.52;;;;;;;9.82;39.45;99770.31;6322125;28;20424;-76
2023/03/28 11:18:09;;;;;;;1.25;0.70;;;;;;;10.06;39.67;99760.13;6321236;28;20051;-76
2023/03/28 11:21:34;;;;;;;1.88;0.77;;;;;;;9.89;37.64;99748.19;6293053;28;20060;-76
2023/03/28 11:24:51;;;;;;;0.57;0.52;;;;;;;9.91;37.43;99748.09;6321459;28;20052;-76
2023/03/28 11:27:59;;;;;;;0.60;0.60;;;;;;;9.22;38.75;99750.56;6322212;28;20040;-76
2023/03/28 11:31:01;;;;;;;0.70;0.70;;;;;;;9.62;38.87;99748.13;6321003;28;20051;-76
2023/03/28 11:34:33;;;;;;;2.65;0.50;;;;;;;9.82;38.50;99747.75;6319558;28;20048;-71
2023/03/28 11:37:46;;;;;;;1.60;1.13;;;;;;;9.31;38.50;99746.56;6320107;28;20040;-76
2023/03/28 11:40:55;;;;;;;2.85;0.90;;;;;;;9.98;39.86;99741.53;6321263;28;20570;-72
2023/03/28 11:43:56;;;;;;;1.05;0.90;;;;;;;9.69;38.42;99742.44;6320922;28;20044;-72
2023/03/28 11:47:06;;;;;;;0.70;0.70;;;;;;;9.72;40.48;99744.03;6319351;28;20523;-71
2023/03/28 11:50:17;;;;;;;1.15;0.80;;;;;;;9.32;40.34;99737.81;6319332;28;20119;-72
2023/03/28 11:53:29;;;;;;;3.15;1.35;;;;;;;9.08;40.76;99735.78;6319347;28;20036;-72
2023/03/28 11:56:57;;;;;;;1.77;0.63;;;;;;;8.47;46.15;99742.81;6319220;28;20044;-72
2023/03/28 12:00:20;;;;;;;1.40;0.70;;;;;;;7.23;56.36;99748.63;6320417;28;20040;-73
2023/03/28 12:03:41;;;;;;;1.67;0.57;;;;;;;6.76;59.73;99764.03;6319991;28;20408;-76
2023/03/28 12:07:04;;;;;;;1.15;0.50;;;;;;;6.08;60.18;99767.28;6320736;28;20047;-72
2023/03/28 12:10:17;;;;;;;;;;;;;;;5.55;60.55;99779.16;6319812;28;20040;-72
2023/03/28 12:13:52;;;;;;;0.80;0.40;;;;;;;5.45;66.89;99786.47;6320941;28;19963;-75
2023/03/28 12:16:54;;;;;;;0.30;0.30;;;;;;;5.61;67.56;99783.22;6320685;28;20128;-75
2023/03/28 12:19:55;;;;;;;1.60;0.70;;;;;;;6.44;66.54;99776.78;6320334;28;20477;-76
2023/03/28 12:23:04;;;;;;;2.35;0.82;;;;;;;7.21;58.84;99770.38;6320242;28;20044;-76
2023/03/28 12:26:41;;;;;;;1.30;0.90;;;;;;;7.82;61.37;99774.09;6320143;28;20115;-75
2023/03/28 12:29:55;;;;;;;1.02;0.73;;;;;;;8.17;55.74;99776.53;6324849;28;20089;-75
2023/03/28 12:33:21;;;;;;;0.50;0.50;;;;;;;7.70;56.19;99779.94;6324861;28;20060;-72
2023/03/28 12:36:32;;;;;;;2.60;1.60;;;;;;;7.26;59.64;99784.78;6324566;28;20423;-72
2023/03/28 12:39:45;;;;;;;2.88;1.77;;;;;;;6.96;60.00;99784.63;6323451;28;20468;-72
2023/03/28 12:42:53;;;;;;;1.80;0.82;;;;;;;6.36;61.64;99803.09;6323158;28;20047;-72
2023/03/28 12:45:59;;;;;;;1.50;0.63;;;;;;;5.07;76.53;99836.44;6323275;28;20040;-72
2023/03/28 12:49:32;;;;;;;0.63;0.60;;;;;;;3.65;100.00;99848.81;6323161;28;20453;-71
2023/03/28 12:52:36;;;;;;;1.73;1.58;;;;;;;3.16;100.00;99864.25;6322946;28;20048;-72
2023/03/28 12:55:43;;;;;;;0.95;0.70;;;;;;;2.44;100.00;99879.44;6323996;28;20046;-71
2023/03/28 12:58:49;;;;;;;0.93;0.93;;;;;;;2.36;100.00;99882.22;6324064;28;20064;-71
2023/03/28 13:01:53;;;;;;;0.43;0.43;;;;;;;1.75;100.00;99877.97;6323894;28;20484;-72
2023/03/28 13:05:03;;;;;;;0.38;0.30;;;;;;;1.58;100.00;99891.25;6322777;28;20055;-71
2023/03/28 13:08:04;;;;;;;0.25;0.22;;;;;;;1.39;100.00;99887.50;6322515;28;20036;-72
2023/03/28 13:11:32;;;;;;;1.05;1.00;;;;;;;1.31;100.00;99894.56;6323777;28;20046;-74
2023/03/28 13:14:37;;;;;;;0.32;0.32;;;;;;;1.28;100.00;99889.53;6323505;28;20044;-75
2023/03/28 13:17:48;;;;;;;1.50;1.20;;;;;;;1.31;100.00;99900.53;6323824;28;20071;-74
2023/03/28 13:20:51;;;;;;;4.35;3.00;;;;;;;1.00;100.00;99906.44;6322200;28;20467;-74
2023/03/28 13:23:52;;;;;;;5.53;2.85;;;;;;;1.13;100.00;99909.59;6322163;28;20081;-74
2023/03/28 13:26:59;;;;;;;3.10;1.80;;;;;;;1.32;100.00;99912.53;6323174;28;20088;-74
2023/03/28 13:30:15;;;;;;;4.43;2.97;;;;;;;1.30;100.00;99921.16;6322070;28;20044;-75
2023/03/28 13:33:27;;;;;;;0.95;0.88;;;;;;;1.31;100.00;99922.84;6321852;28;20050;-76
2023/03/28 13:36:32;;;;;;;0.75;0.57;;;;;;;1.01;100.00;99920.16;6323182;28;20427;-74
2023/03/28 13:39:33;;;;;;;0.32;0.32;;;;;;;1.33;100.00;99932.19;6320643;28;20065;-74
2023/03/28 13:42:34;;;;;;;0.60;0.50;;;;;;;1.57;100.00;99925.59;6321771;28;20389;-74
2023/03/28 13:45:36;;;;;;;0.43;0.22;;;;;;;1.51;100.00;99932.63;6321670;28;20480;-83
2023/03/28 13:48:51;;;;;;;0.40;0.40;;;;;;;1.70;100.00;99928.69;6321662;28;20481;-83
2023/03/28 13:51:59;;;;;;;0.80;0.43;;;;;;;1.92;100.00;99920.41;6321515;28;20060;-81
2023/03/28 13:55:14;;;;;;;0.10;0.10;;;;;;;2.29;100.00;99922.78;6321653;28;20503;-80
2023/03/28 13:58:15;;;;;;;0.20;0.20;;;;;;;2.61;100.00;99920.97;6321320;28;20036;-79
2023/03/28 14:01:24;;;;;;;0.10;0.10;;;;;;;2.82;100.00;99911.72;6321447;28;20043;-78
2023/03/28 14:04:35;;;;;;;0.20;0.20;;;;;;;3.18;100.00;99908.88;6321524;28;20071;-78
2023/03/28 14:07:36;;;;;;;1.45;1.05;;;;;;;3.55;98.86;99911.03;6321737;28;20048;-78
2023/03/28 14:10:40;;;;;;;2.17;0.95;;;;;;;3.84;95.72;99920.34;6323018;28;20480;-78
2023/03/28 14:13:41;;;;;;;1.70;0.90;;;;;;;4.05;93.62;99915.31;6321731;28;20044;-77
2023/03/28 14:16:44;;;;;;;0.38;0.38;;;;;;;4.09;90.58;99923.81;6322854;28;20503;-77
2023/03/28 14:19:49;;;;;;;0.82;0.40;;;;;;;4.45;84.53;99929.34;6322837;28;20047;-77
2023/03/28 14:22:51;;;;;;;1.27;0.88;;;;;;;4.41;85.72;99927.78;6321882;28;20070;-77
2023/03/28 14:25:52;;;;;;;0.40;0.30;;;;;;;4.87;86.58;99932.91;6323397;28;20089;-76
2023/03/28 14:28:59;;;;;;;2.08;0.98;;;;;;;4.63;88.07;99931.25;6323393;28;20043;-77
2023/03/28 14:32:06;;;;;;;1.50;1.00;;;;;;;4.36;78.60;99919.34;6323153;28;20399;-76
2023/03/28 14:35:20;;;;;;;1.23;0.70;;;;;;;4.18;84.84;99926.03;6323079;28;20044;-77
2023/03/28 14:38:34;;;;;;;1.20;0.50;;;;;;;3.97;77.98;99925.06;6322859;28;20137;-77
2023/03/28 14:41:36;;;;;;;0.95;0.70;;;;;;;3.78;76.88;99928.31;6322755;28;20040;-76
2023/03/28 14:44:42;;;;;;;1.40;0.90;;;;;;;3.93;83.64;99938.97;6321645;28;20072;-76
2023/03/28 14:47:43;;;;;;;0.93;0.73;;;;;;;4.09;76.65;99932.38;6322111;28;20051;-71
2023/03/28 14:50:46;;;;;;;0.60;0.60;;;;;;;4.83;74.68;99945.13;6320922;28;20119;-71
2023/03/28 14:53:48;;;;;;;2.25;1.25;;;;;;;5.53;78.89;99941.41;6321241;28;20036;-71